Aktualne dane pomiarowe

Uwaga, wersja testowa! Automatyczne pobieranie danych za pomocą narzędzi lub skryptów to umożliwiających jest zabronione.

Dane meteo z obszaru Polski uzyskane na podstawie depesz SYNOP pobieranych co godzinę z NWS. Najedź myszką na symbol przedstawiony w tabeli, aby uzyskać informacje co do jego znaczenia. Prosimy pamiętać, że to testowa wersja strony, która jeszcze nie jest ukończona. Stworzono również jest krótki FAQ dotyczący korzystania z tej podstrony Anomalie temperatury w chwili obecnej odniesione są do okresu referencyjnego 1951-2016. Okres ten będzie później zmieniony na 1981-2010. Kliknij ikonę aby pobrać plik CSV. Kliknij ikonę aby wygenerować mapę synoptyczną dla danego terminu.

Wybierz Datę:    

        

Zamość (12595)

Dane terminowe dla wybranej stacji. Kliknij datę, aby otrzymać dane z tego terminu dla wszystkich stacji.

TemperaturaZachmurzenieWiatrCiśnienieOpadyPogoda
 Data t td wb tx tn tg rh  Nt Nl Cl Cm Ch ws wd g1 g2 wx mslp ppp ch 24h 12h t ww ww w1 w2  
2019-08-08 23:00:00 15.4 12.2 13.3--- 8120.0-------1013.6 987.3 0.7---------
2019-08-08 22:00:00 14.5 12.2 12.9--- 8620.0-------1013.7 987.3 1.0---------
2019-08-08 21:00:00 15.1 12.0 13.0--- 8220.0-------1013.5 987.1 1.2---------
2019-08-08 20:00:00 16.3 12.8 14.0--- 8020.0-------1012.8 986.6 1.0---------
2019-08-08 19:00:00 16.9 13.0 14.3--- 7820.0-------1012.5 986.3 0.9---------
2019-08-08 18:00:00 18.7 13.3 15.2 25.6 17.9- 7120.0wxwxwxwx3wx-1231011.9 985.9 0.6- 1.012wx-w1--
2019-08-08 17:00:00 21.9 13.0 16.3--- 5720.0wxwxwxwx3wx---1011.3 985.6 0.4---------
2019-08-08 16:00:00 23.2 13.4 17.0--- 5420.0wxwxwxwx4wx---1011.0 985.4 0.7---------
2019-08-08 15:00:00 22.7 15.8 18.1--- 6520.0wxwxwxwx4wx-1241010.9 985.3 0.5---wx---
2019-08-08 14:00:00 23.2 14.2 17.5--- 5720.0wxwxwxwx5wx--51010.8 985.2 0.5---------
2019-08-08 13:00:00 24.9 13.8 17.9--- 5020.0wxwxwxwx7wx121271010.1 984.7 0.8---------
2019-08-08 12:00:00 24.2 14.0 17.8--- 5320.0wxwxwx8wx-1381010.3 984.8 1.8- 0.36wx-w1--
2019-08-08 11:00:00 22.4 15.3 17.7--- 6420.0wxwxwx8wx--81010.3 984.7 2.2---------
2019-08-08 10:00:00 22.0 16.7 18.4--- 7220.0wxwxwxwxwx9wx-1391009.6 983.9 2.0---------
2019-08-08 09:00:00 21.8 18.2 19.3--- 8020.0wxwxwxwx8wx--81008.7 983.0 1.5---wx-w1--
2019-08-08 08:00:00 19.4 17.5 18.0--- 8920.0wxwxwx9wx--91008.4 982.5 2.1---------
2019-08-08 07:00:00 19.0 17.8 18.1--- 9320.0wxwxwx8wx--81007.8 981.9 2.0---wx-w1--
2019-08-08 06:00:00 18.0 17.0 17.3 19.8 16.5 15 9420.0wxwxwx6wx--61007.5 981.5 1.3 17.2 10.012wx-----
2019-08-08 05:00:00 17.7 17.2 17.3--- 9714.0--4wx---1006.3 980.4 0.4---wx-----
2019-08-08 04:00:00 18.0 17.2 17.4--- 9520.0--4wx---1005.8 979.9 -0.7---wx-----
2019-08-08 03:00:00 17.8 17.5 17.6--- 984.5--5wx--51006.1 980.2 -0.6---wx-----
2019-08-08 02:00:00 16.7 16.4 16.5--- 984.1--0---01006.0 980.0 -1.2---wx-----
2019-08-08 01:00:00 16.7 16.4 16.5--- 983.8--1wx--11006.6 980.6 -1.1---wx-----
2019-08-08 00:00:00 16.9 16.4 16.5--- 972.8--1wx--11006.8 980.8 -0.7- 0.06wx-----
2019-08-07 23:00:00 17.3 16.7 16.8--- 968.0--2wx--21007.2 981.2 -0.7---wx-----
2019-08-07 22:00:00 17.9 17.1 17.3--- 9515.0--2wx--21007.7 981.7 -0.6---------
2019-08-07 21:00:00 17.6 16.6 16.9--- 9410.0--2wx---1007.5 981.5 -0.7---------
2019-08-07 20:00:00 18.8 17.6 17.9--- 9320.0--1wx---1007.8 981.9 -0.7---------
2019-08-07 19:00:00 19.3 18.0 18.3--- 9220.0--3wx---1008.2 982.3 -1.1---------
2019-08-07 18:00:00 19.7 18.7 19.0 30.4 18.9- 9420.0wx-wxwx2wx-1521008.0 982.2 -2.3- 7.012wx-w1w2--
2019-08-07 17:00:00 20.3 18.8 19.2--- 9120.0wxwxwxwxwx3wx--31008.4 982.6 -1.4---------
2019-08-07 16:00:00 20.5 19.2 19.5--- 9220.0wxwxwxwx2wx--21009.2 983.4 -0.5---------
2019-08-07 15:00:00 19.1 18.4 18.6--- 9620.0wxwxwx3wx-1531010.4 984.5 1.7---wx-w1w2--
2019-08-07 14:00:00 19.0 18.0 18.3--- 9410.0wxwxwx2wx---1009.9 984.0 0.5---wx-w1w2--
2019-08-07 13:00:00 20.7 16.7 17.9--- 7820.0wxwxwx7wx-1571009.7 983.9 -0.2---wx-w1--
2019-08-07 12:00:00 29.7 16.1 20.9--- 4420.0wxwxwxwx3wx--31007.8 982.8 -1.7- 0.06------
2019-08-07 11:00:00 29.9 14.8 20.4--- 4020.0wxwxwxwx6wx--61008.5 983.5 -0.9---------
2019-08-07 10:00:00 27.8 16.1 20.2--- 4920.0wxwxwxwxwx5wx--51009.3 984.1 -0.6---------
2019-08-07 09:00:00 26.7 16.9 20.3--- 5520.0wxwxwxwxwx3wx---1009.8 984.5 -0.3---------
2019-08-07 08:00:00 24.5 17.0 19.5--- 6320.0wx-wxwx4wx--41009.9 984.4 -0.2---------
2019-08-07 07:00:00 22.7 16.9 18.8--- 7020.0wx-wxwx2wx--21010.3 984.7 0.1---------
2019-08-07 06:00:00 20.4 17.4 18.3 22.6 18.0 16 8320.0wxwxwxwxwx1wx--11010.6 984.8 0.3 0.2 0.212wx-----
2019-08-07 05:00:00 18.8 16.8 17.4--- 8820.0--3wx--31010.6 984.6 -0.1---------
2019-08-07 04:00:00 18.0 16.5 16.9--- 9120.0--3wx---1010.6 984.6 0.2---wx-----
2019-08-07 03:00:00 18.5 16.3 16.9--- 8720.0--3wx--31010.5 984.5 -0.1---wx-----
2019-08-07 02:00:00 18.8 16.2 17.0--- 8520.0--3wx--31010.7 984.7 -0.2---------
2019-08-07 01:00:00 18.3 15.7 16.5--- 8520.0--1wx--11010.4 984.4 -0.7---------
2019-08-07 00:00:00 19.1 16.0 16.9--- 8220.0--3wx--31010.5 984.6 -0.8- 0.06------
1.7 ms

 

Print Friendly, PDF & Email